Charlottesville Albemarle Airport Charlottesville US
ICAO: KCHO
IATA: CHO
Category: Medium
Scheduled Services: Yes

Elevation: 639 ft
TransAlt. 18000 ft.

Airport Communications:
POTOMAC APP/DEP:132.85
ASOS:118.425
ATIS:118.425
CTAF:124.5
GND:121.9
LEESBURG RDO:122.2
TWR:124.5
UNICOM:122.95

KCHO Zoom In..

Runways:

(A) RW 03 length 6801 ft width 150 ft
ILS 111.70 / hdg 30

(B) RW 21 length 6801 ft width 150 ft
---- / hdg 210

Location; KCHO
Day. 04 / Time. 00.53 Zulu
* Altimeter: 30.18
* Temperature: 10° c. 50°f.
* Wind from: 200° Speed 05 kn.
Dewpoint: -04° c.
Visibility: 10 Statute Miles.
Clouds: Broken 12000 ft.

KCHO 040053Z 20005KT 10SM BKN120 10/M04 A3018 RMK AO2 SLP223 T01001044

Going to: --> -->


Wind From 200°
Speed 05 kn.

 
 
jpsmedia worldairports.se 2020   terms of use